Agana Heights, GU

6:29 AM ChST on July 07, 2015 (GMT +1000)
Maite | | Change Station
CLOSE
Current Station
Personal Weather Station
Location: Maite, GU
Elevation: 140 ft
Nearby Weather Stations
Active Advisory: High Surf Advisory

Elev 140 ft 13.48 °N, 144.76 °E | Updated 2 seconds ago

Clear
Clear
79.4 °F
Feels Like 85 °F
N
3.0
Wind Variable Wind from SSE
Gusts 5.0 mph

Today
High -- | Low -- °F
--% Chance of Precip.
Yesterday
High -- | Low -- °F
Precip. -- in
5:59 AM 6:52 PM
Waning Gibbous, 72% visible
Pressure 29.71 in
Visibility 10.0 miles
Clouds Clear
Heat Index 85 °F
Dew Point 78 °F
Humidity 96%
Rainfall 0.00 in
Snow Depth Not available.
UV 0.0 out of 12
Pollen Not available.
Air Quality Not available.
Flu Activity Not available.
METAR PGUM 061954Z 17004KT 10SM CLR 26/26 A2973 RMK AO2 SLP059 T02610256

More Conditions Fewer Conditions

Pressure 29.71 in
Visibility 10.0 miles
Clouds Clear
Heat Index 85 °F
Dew Point 78 °F
Humidity 96%
Rainfall 0.00 in
Snow Depth Not available.
UV 0.0 out of 12
Pollen Not available.
Air Quality Not available.
Flu Activity Not available.
METAR PGUM 061954Z 17004KT 10SM CLR 26/26 A2973 RMK AO2 SLP059 T02610256

More Conditions Fewer Conditions

10-Day Weather Forecast

×

Almanac

Astronomy

Jul. 07, 2015 Rise Set
Actual Time
Civil Twilight
Nautical Twilight
Astronomical Twilight
Moon
Length of Visible Light
Length of Day
Tomorrow will be .
, % of the Moon is Illuminated

Today's Extremes

State Highs State Lows

Community

WunderPhotos

Upload Photos

1,835,636 photos uploaded!

WunderBlogs® & News

Nearby

Air Quality

  Air Quality AQ Index Pollutant
Not available.

Snow Depth

Station Depth Elevation

Earthquake Activity

City Distance Mag. Time & Date
Minimum magnitude displayed is 2.5.

Coastal Water Temperatures

Place Temperature

Stations

Nearby Weather Stations

Station Location Temp. Windchill Dew Point Humidity Wind Precip. Elev Updated Type
                   
High Surf Advisory
Statement as of 5:31 AM GMT on July 07, 2015

... High surf advisory now in effect until 6 PM chst Thursday...

* expect hazardous surf at 9 to 11 feet along west facings reefs
   and 7 to 9 feet along south facing reefs through Wednesday.

* Hazardous may spread to north and east facing reefs Wednesday
   night or Thursday.

Precautionary/preparedness actions...

Avoid venturing near exposed reefs and beaches... especially those
facing south and west... as rip currents will be life threatening.